VLG1004 LEBL-LEMD
Flight info
| Callsign | VLG1004 |
|---|---|
| Flight time | N/A |
| Altitude | 29000 |
| Route | SENIA Z596 NEXAS N975 ADUXO |
| Aircraft | A320/M-SDE3FGHIRWY/LB1 |
Departure
| Time | 2026-05-06 10:48 |
|---|---|
| Airport | Josep Tarradellas Barcelona-El Prat Airport (LEBL) |
Arrival
| Time | N/A |
|---|---|
| Airport | Adolfo Suárez Madrid–Barajas Airport (LEMD) |
| Time | Latitude | Longitude | Altitude | Speed | Heading |
|---|---|---|---|---|---|
| 2026-05-06 10:18 | 41.29208 | 2.08115 | 19 ft | 0 kts | 156° |
| 2026-05-06 10:37 | 41.29221 | 2.08106 | 21 ft | 3 kts | 152° |
| 2026-05-06 10:37 | 41.29238 | 2.08093 | 20 ft | 3 kts | 143° |
| 2026-05-06 10:37 | 41.29254 | 2.08076 | 20 ft | 3 kts | 131° |
| 2026-05-06 10:37 | 41.29265 | 2.08055 | 19 ft | 3 kts | 109° |
| 2026-05-06 10:38 | 41.29268 | 2.08031 | 19 ft | 3 kts | 70° |
| 2026-05-06 10:38 | 41.29267 | 2.08027 | 19 ft | 0 kts | 65° |
| 2026-05-06 10:42 | 41.29273 | 2.08045 | 19 ft | 6 kts | 65° |
| 2026-05-06 10:43 | 41.29303 | 2.08128 | 19 ft | 14 kts | 65° |
| 2026-05-06 10:43 | 41.29353 | 2.08273 | 20 ft | 17 kts | 65° |
| 2026-05-06 10:43 | 41.29326 | 2.08400 | 20 ft | 16 kts | 149° |
| 2026-05-06 10:44 | 41.29104 | 2.08537 | 16 ft | 21 kts | 155° |
| 2026-05-06 10:44 | 41.28969 | 2.08620 | 19 ft | 22 kts | 155° |
| 2026-05-06 10:44 | 41.28870 | 2.08730 | 17 ft | 16 kts | 89° |
| 2026-05-06 10:44 | 41.28914 | 2.08869 | 16 ft | 17 kts | 65° |
| 2026-05-06 10:45 | 41.28960 | 2.09020 | 18 ft | 19 kts | 68° |
| 2026-05-06 10:45 | 41.29013 | 2.09181 | 17 ft | 20 kts | 66° |
| 2026-05-06 10:45 | 41.29075 | 2.09356 | 17 ft | 22 kts | 65° |
| 2026-05-06 10:45 | 41.29140 | 2.09544 | 17 ft | 23 kts | 65° |
| 2026-05-06 10:46 | 41.29208 | 2.09747 | 19 ft | 25 kts | 65° |
| 2026-05-06 10:46 | 41.29278 | 2.09959 | 19 ft | 24 kts | 79° |
| 2026-05-06 10:46 | 41.29235 | 2.10154 | 15 ft | 22 kts | 108° |
| 2026-05-06 10:46 | 41.29245 | 2.10280 | 15 ft | 13 kts | 126° |
| 2026-05-06 10:47 | 41.29193 | 2.10247 | 16 ft | 6 kts | 250° |
| 2026-05-06 10:47 | 41.29191 | 2.10242 | 16 ft | 0 kts | 245° |
| 2026-05-06 10:47 | 41.29173 | 2.10190 | 16 ft | 26 kts | 245° |
| 2026-05-06 10:47 | 41.29067 | 2.09884 | 21 ft | 79 kts | 245° |
| 2026-05-06 10:48 | 41.28595 | 2.08533 | 29 ft | 156 kts | 242° |
| 2026-05-06 10:48 | 41.28157 | 2.07250 | 687 ft | 147 kts | 243° |
| 2026-05-06 10:48 | 41.27466 | 2.06289 | 1305 ft | 149 kts | 200° |
| 2026-05-06 10:48 | 41.26406 | 2.05914 | 1729 ft | 168 kts | 191° |
| 2026-05-06 10:49 | 41.25608 | 2.05716 | 1964 ft | 184 kts | 191° |
| 2026-05-06 10:49 | 41.24275 | 2.05388 | 2319 ft | 206 kts | 191° |
| 2026-05-06 10:49 | 41.22827 | 2.05004 | 2875 ft | 216 kts | 193° |
| 2026-05-06 10:49 | 41.21341 | 2.04575 | 3541 ft | 221 kts | 194° |
| 2026-05-06 10:50 | 41.19831 | 2.04110 | 4321 ft | 222 kts | 195° |
| 2026-05-06 10:50 | 41.18357 | 2.03531 | 5165 ft | 220 kts | 211° |
| 2026-05-06 10:50 | 41.17337 | 2.02090 | 5963 ft | 217 kts | 242° |
| 2026-05-06 10:50 | 41.16568 | 2.00380 | 6836 ft | 216 kts | 236° |
| 2026-05-06 10:51 | 41.15688 | 1.98739 | 7615 ft | 219 kts | 236° |
| 2026-05-06 10:51 | 41.14778 | 1.97100 | 8378 ft | 222 kts | 235° |
| 2026-05-06 10:51 | 41.13846 | 1.95447 | 9148 ft | 226 kts | 237° |
| 2026-05-06 10:51 | 41.13152 | 1.93490 | 9533 ft | 246 kts | 255° |
| 2026-05-06 10:52 | 41.12647 | 1.91208 | 9918 ft | 267 kts | 255° |
| 2026-05-06 10:52 | 41.12120 | 1.88757 | 10279 ft | 288 kts | 255° |
| 2026-05-06 10:52 | 41.11551 | 1.86096 | 10578 ft | 310 kts | 255° |
| 2026-05-06 10:52 | 41.10954 | 1.83304 | 11184 ft | 318 kts | 255° |
| 2026-05-06 10:53 | 41.10345 | 1.80455 | 11937 ft | 322 kts | 255° |
| 2026-05-06 10:53 | 41.09730 | 1.77587 | 12717 ft | 326 kts | 255° |
| 2026-05-06 10:53 | 41.09107 | 1.74679 | 13499 ft | 329 kts | 255° |
| 2026-05-06 10:53 | 41.08479 | 1.71747 | 14216 ft | 332 kts | 254° |
| 2026-05-06 10:54 | 41.07844 | 1.68804 | 14944 ft | 332 kts | 254° |
| 2026-05-06 10:54 | 41.07206 | 1.65857 | 15695 ft | 333 kts | 254° |
| 2026-05-06 10:54 | 41.06568 | 1.62913 | 16448 ft | 333 kts | 253° |
| 2026-05-06 10:54 | 41.05926 | 1.59959 | 17182 ft | 333 kts | 253° |
| 2026-05-06 10:55 | 41.05283 | 1.57001 | 17932 ft | 334 kts | 253° |
| 2026-05-06 10:55 | 41.04637 | 1.54036 | 18602 ft | 335 kts | 253° |
| 2026-05-06 10:55 | 41.03986 | 1.51068 | 19195 ft | 338 kts | 253° |
| 2026-05-06 10:55 | 41.03327 | 1.48067 | 19776 ft | 340 kts | 253° |
| 2026-05-06 10:56 | 41.02667 | 1.45054 | 20369 ft | 342 kts | 253° |
| 2026-05-06 10:56 | 41.02012 | 1.42061 | 20960 ft | 344 kts | 253° |
| 2026-05-06 10:56 | 41.01346 | 1.39011 | 21551 ft | 346 kts | 253° |
| 2026-05-06 10:56 | 41.00677 | 1.35942 | 22135 ft | 348 kts | 253° |
| 2026-05-06 10:57 | 41.00003 | 1.32855 | 22713 ft | 350 kts | 252° |
| 2026-05-06 10:57 | 40.99320 | 1.29740 | 23276 ft | 352 kts | 252° |
| 2026-05-06 10:57 | 40.98635 | 1.26622 | 23776 ft | 354 kts | 252° |
| 2026-05-06 10:57 | 40.97944 | 1.23481 | 24229 ft | 356 kts | 252° |
| 2026-05-06 10:58 | 40.97248 | 1.20326 | 24674 ft | 358 kts | 252° |
| 2026-05-06 10:58 | 40.96545 | 1.17147 | 25103 ft | 360 kts | 252° |
| 2026-05-06 10:58 | 40.95839 | 1.13967 | 25531 ft | 362 kts | 252° |
| 2026-05-06 10:58 | 40.95126 | 1.10761 | 25942 ft | 364 kts | 252° |
| 2026-05-06 10:59 | 40.94408 | 1.07541 | 26334 ft | 366 kts | 252° |
| 2026-05-06 10:59 | 40.93686 | 1.04306 | 26730 ft | 368 kts | 252° |
| 2026-05-06 10:59 | 40.92962 | 1.01058 | 27114 ft | 370 kts | 252° |
| 2026-05-06 10:59 | 40.92235 | 0.97787 | 27498 ft | 372 kts | 252° |
| 2026-05-06 11:00 | 40.91502 | 0.94494 | 27877 ft | 373 kts | 252° |
| 2026-05-06 11:00 | 40.90766 | 0.91193 | 28242 ft | 375 kts | 252° |
| 2026-05-06 11:00 | 40.90025 | 0.87878 | 28559 ft | 378 kts | 252° |
| 2026-05-06 11:00 | 40.89271 | 0.84536 | 28891 ft | 380 kts | 252° |
| 2026-05-06 11:01 | 40.88519 | 0.81201 | 28971 ft | 372 kts | 252° |
| 2026-05-06 11:01 | 40.87805 | 0.78026 | 28973 ft | 360 kts | 252° |
| 2026-05-06 11:01 | 40.87144 | 0.74855 | 28980 ft | 356 kts | 257° |
| 2026-05-06 11:02 | 40.86918 | 0.68304 | 28975 ft | 358 kts | 268° |
| 2026-05-06 11:02 | 40.86977 | 0.61737 | 28976 ft | 358 kts | 268° |
| 2026-05-06 11:03 | 40.87018 | 0.55161 | 28975 ft | 358 kts | 267° |
| 2026-05-06 11:03 | 40.87058 | 0.48579 | 28972 ft | 357 kts | 267° |
| 2026-05-06 11:04 | 40.87091 | 0.42010 | 28978 ft | 357 kts | 267° |
| 2026-05-06 11:04 | 40.87123 | 0.35445 | 28988 ft | 357 kts | 267° |
| 2026-05-06 11:05 | 40.87153 | 0.28917 | 28981 ft | 358 kts | 267° |
| 2026-05-06 11:05 | 40.87182 | 0.22304 | 28977 ft | 357 kts | 267° |
| 2026-05-06 11:06 | 40.87203 | 0.15781 | 28977 ft | 357 kts | 267° |
| 2026-05-06 11:06 | 40.87218 | 0.09218 | 28979 ft | 357 kts | 267° |
| 2026-05-06 11:07 | 40.87235 | 0.02658 | 28979 ft | 357 kts | 267° |
| 2026-05-06 11:07 | 40.87247 | -0.03900 | 28989 ft | 357 kts | 268° |
| 2026-05-06 11:08 | 40.87250 | -0.10466 | 28976 ft | 357 kts | 268° |
| 2026-05-06 11:08 | 40.87255 | -0.17024 | 28976 ft | 357 kts | 268° |
| 2026-05-06 11:09 | 40.87260 | -0.23602 | 28979 ft | 357 kts | 268° |
| 2026-05-06 11:09 | 40.87260 | -0.30113 | 28976 ft | 356 kts | 268° |
| 2026-05-06 11:10 | 40.87256 | -0.36672 | 28980 ft | 357 kts | 267° |
| 2026-05-06 11:10 | 40.87240 | -0.43227 | 28979 ft | 356 kts | 267° |
| 2026-05-06 11:11 | 40.87226 | -0.49770 | 28971 ft | 356 kts | 267° |
| 2026-05-06 11:11 | 40.87207 | -0.56321 | 28969 ft | 356 kts | 267° |
| 2026-05-06 11:12 | 40.87185 | -0.62866 | 28968 ft | 356 kts | 267° |
| 2026-05-06 11:12 | 40.87159 | -0.69411 | 28970 ft | 356 kts | 267° |
| 2026-05-06 11:13 | 40.87126 | -0.75957 | 28970 ft | 356 kts | 267° |
| 2026-05-06 11:13 | 40.86275 | -0.82344 | 28987 ft | 354 kts | 250° |
| 2026-05-06 11:14 | 40.84575 | -0.88445 | 28981 ft | 354 kts | 250° |
| 2026-05-06 11:14 | 40.82882 | -0.94560 | 28980 ft | 354 kts | 250° |
| 2026-05-06 11:15 | 40.81189 | -1.00668 | 28983 ft | 354 kts | 250° |
| 2026-05-06 11:15 | 40.79504 | -1.06737 | 28984 ft | 354 kts | 250° |
| 2026-05-06 11:15 | 40.78644 | -1.09827 | 28856 ft | 352 kts | 250° |
| 2026-05-06 11:16 | 40.77815 | -1.12796 | 28570 ft | 348 kts | 250° |
| 2026-05-06 11:16 | 40.76978 | -1.15788 | 28314 ft | 347 kts | 250° |
| 2026-05-06 11:16 | 40.76143 | -1.18767 | 28050 ft | 346 kts | 250° |
| 2026-05-06 11:16 | 40.75308 | -1.21750 | 27776 ft | 345 kts | 250° |
| 2026-05-06 11:17 | 40.74478 | -1.24715 | 27515 ft | 344 kts | 250° |
| 2026-05-06 11:17 | 40.73651 | -1.27663 | 27253 ft | 342 kts | 250° |
| 2026-05-06 11:17 | 40.72824 | -1.30606 | 26988 ft | 341 kts | 250° |
| 2026-05-06 11:17 | 40.72002 | -1.33535 | 26720 ft | 340 kts | 250° |
| 2026-05-06 11:18 | 40.71181 | -1.36454 | 26473 ft | 339 kts | 250° |
| 2026-05-06 11:18 | 40.70362 | -1.39362 | 26219 ft | 338 kts | 250° |
| 2026-05-06 11:18 | 40.69544 | -1.42258 | 25970 ft | 337 kts | 250° |
| 2026-05-06 11:18 | 40.68728 | -1.45147 | 25718 ft | 336 kts | 250° |
| 2026-05-06 11:19 | 40.67914 | -1.48031 | 25468 ft | 335 kts | 250° |
| 2026-05-06 11:19 | 40.67113 | -1.50863 | 25224 ft | 333 kts | 250° |
| 2026-05-06 11:19 | 40.66307 | -1.53722 | 24977 ft | 333 kts | 250° |
| 2026-05-06 11:19 | 40.65488 | -1.56617 | 24737 ft | 333 kts | 250° |
| 2026-05-06 11:20 | 40.64687 | -1.59440 | 24500 ft | 332 kts | 250° |
| 2026-05-06 11:20 | 40.63880 | -1.62286 | 24261 ft | 331 kts | 250° |
| 2026-05-06 11:20 | 40.63077 | -1.65124 | 24025 ft | 330 kts | 250° |
| 2026-05-06 11:20 | 40.62273 | -1.67956 | 23795 ft | 329 kts | 250° |
| 2026-05-06 11:21 | 40.61472 | -1.70773 | 23556 ft | 328 kts | 250° |
| 2026-05-06 11:21 | 40.60669 | -1.73587 | 23278 ft | 328 kts | 250° |
| 2026-05-06 11:21 | 40.59866 | -1.76394 | 23003 ft | 328 kts | 250° |
| 2026-05-06 11:21 | 40.59061 | -1.79201 | 22726 ft | 327 kts | 250° |
| 2026-05-06 11:22 | 40.58257 | -1.81997 | 22456 ft | 327 kts | 250° |
| 2026-05-06 11:22 | 40.57452 | -1.84795 | 22184 ft | 327 kts | 250° |
| 2026-05-06 11:22 | 40.56652 | -1.87585 | 21922 ft | 326 kts | 250° |
| 2026-05-06 11:22 | 40.55852 | -1.90377 | 21652 ft | 326 kts | 250° |
| 2026-05-06 11:23 | 40.55047 | -1.93183 | 21383 ft | 328 kts | 251° |
| 2026-05-06 11:23 | 40.54242 | -1.95985 | 21122 ft | 328 kts | 251° |
| 2026-05-06 11:23 | 40.53432 | -1.98798 | 20866 ft | 329 kts | 251° |
| 2026-05-06 11:23 | 40.52623 | -2.01604 | 20606 ft | 329 kts | 251° |
| 2026-05-06 11:24 | 40.51820 | -2.04378 | 20357 ft | 329 kts | 251° |
| 2026-05-06 11:24 | 40.50898 | -2.07128 | 20110 ft | 330 kts | 242° |
| 2026-05-06 11:24 | 40.49707 | -2.09702 | 19864 ft | 330 kts | 240° |
| 2026-05-06 11:24 | 40.48505 | -2.12274 | 19613 ft | 330 kts | 240° |
| 2026-05-06 11:25 | 40.47300 | -2.14856 | 19373 ft | 331 kts | 240° |
| 2026-05-06 11:25 | 40.46098 | -2.17426 | 19132 ft | 331 kts | 240° |
| 2026-05-06 11:25 | 40.44895 | -2.20001 | 18879 ft | 329 kts | 240° |
| 2026-05-06 11:25 | 40.43702 | -2.22554 | 18622 ft | 327 kts | 240° |
| 2026-05-06 11:26 | 40.42512 | -2.25097 | 18268 ft | 326 kts | 240° |
| 2026-05-06 11:26 | 40.41324 | -2.27635 | 17865 ft | 326 kts | 240° |
| 2026-05-06 11:26 | 40.40136 | -2.30164 | 17492 ft | 326 kts | 240° |
| 2026-05-06 11:26 | 40.38943 | -2.32705 | 17127 ft | 327 kts | 240° |
| 2026-05-06 11:27 | 40.37748 | -2.35244 | 16754 ft | 327 kts | 240° |
| 2026-05-06 11:27 | 40.36551 | -2.37779 | 16385 ft | 326 kts | 239° |
| 2026-05-06 11:27 | 40.35362 | -2.40301 | 16018 ft | 325 kts | 239° |
| 2026-05-06 11:27 | 40.34172 | -2.42829 | 15651 ft | 325 kts | 239° |
| 2026-05-06 11:28 | 40.33787 | -2.43647 | 15532 ft | 325 kts | 239° |